| Date | Time | Temp. (oF) | Dew Point (oF) | Rel. Hum. (%) | Press. (in.) | Wind Dir. | Wind Speed (mph) | Hourly Rainfall (in.) |
|
|---|---|---|---|---|---|---|---|---|---|
| 1 | 07/12 | 00:00 | 72 | 59 | 64 | 29.87 | SW | 5 | 0.00 |
| 2 | 07/11 | 23:00 | 72 | 60 | 67 | 29.86 | W | 6 | 0.00 |
| 3 | 07/11 | 22:00 | 75 | 59 | 58 | 29.84 | SW | 0 | 0.00 |
| 4 | 07/11 | 21:00 | 78 | 58 | 52 | 29.81 | SW | 4 | 0.00 |
| 5 | 07/11 | 20:00 | 81 | 59 | 49 | 29.77 | SW | 4 | 0.00 |
| 6 | 07/11 | 19:00 | 83 | 61 | 49 | 29.74 | SW | 6 | 0.00 |
| 7 | 07/11 | 18:00 | 85 | 62 | 48 | 29.73 | W | 14 | 0.00 |
| 8 | 07/11 | 17:00 | 85 | 66 | 54 | 29.73 | SW | 7 | 0.00 |
| 9 | 07/11 | 16:00 | 81 | 71 | 74 | 29.74 | S | 6 | 0.00 |
| 10 | 07/11 | 15:00 | 82 | 72 | 72 | 29.73 | SW | 4 | 0.00 |
| 11 | 07/11 | 14:00 | 84 | 70 | 65 | 29.74 | SSW | 12 | 0.00 |
| 12 | 07/11 | 13:00 | 82 | 70 | 68 | 29.75 | SW | 6 | 0.00 |
| 13 | 07/11 | 12:00 | 81 | 68 | 67 | 29.75 | SW | 2 | 0.00 |
| 14 | 07/11 | 11:00 | 81 | 69 | 68 | 29.75 | WSW | 8 | 0.00 |
| 15 | 07/11 | 10:00 | 79 | 73 | 82 | 29.76 | W | 7 | 0.00 |
| 16 | 07/11 | 09:00 | 75 | 74 | 97 | 29.76 | S | 1 | 0.00 |
| 17 | 07/11 | 08:00 | 72 | 72 | 100 | 29.76 | SSW | 1 | 0.00 |
| 18 | 07/11 | 07:00 | 70 | 69 | 100 | 29.76 | S | 0 | 0.00 |
| 19 | 07/11 | 06:00 | 69 | 68 | 100 | 29.75 | SE | 0 | 0.00 |
| 20 | 07/11 | 05:00 | 69 | 68 | 100 | 29.75 | NE | 0 | 0.00 |
| 21 | 07/11 | 04:00 | 69 | 68 | 100 | 29.76 | ESE | 0 | 0.00 |
| 22 | 07/11 | 03:00 | 68 | 68 | 100 | 29.78 | E | 1 | 0.02 |
| 23 | 07/11 | 02:00 | 68 | 68 | 100 | 29.80 | ESE | 2 | 0.00 |
| 24 | 07/11 | 01:00 | 68 | 68 | 100 | 29.81 | E | 1 | 0.00 |